Time;durP1;ratioP1;P1;durP2;ratioP2;P2;SDS_P1;SDS_P2;PMS_P1;PMS_P2;Temp;Humidity;BMP_temperature;BMP_pressure;BME280_temperature;BME280_humidity;BME280_pressure;Samples;Min_cycle;Max_cycle;Signal;HPM_P1;HPM_P2
2021/03/04 00:02:19;;;;;;;119.53;52.58;;;7.10;99.90;;;;;;5040939;28;20104;-70
2021/03/04 00:04:44;;;;;;;113.32;52.35;;;7.00;99.90;;;;;;5060023;28;20029;-70
2021/03/04 00:07:10;;;;;;;123.47;53.58;;;6.90;99.90;;;;;;5058782;28;20640;-69
2021/03/04 00:09:36;;;;;;;126.40;58.53;;;6.80;99.90;;;;;;5059764;28;20721;-69
2021/03/04 00:12:01;;;;;;;126.05;56.95;;;6.80;99.90;;;;;;5059426;28;20872;-70
2021/03/04 00:14:28;;;;;;;124.05;56.13;;;6.90;99.90;;;;;;5024957;28;20039;-70
2021/03/04 00:16:53;;;;;;;123.60;57.20;;;6.90;99.90;;;;;;5025264;28;20028;-70
2021/03/04 00:19:19;;;;;;;126.10;56.78;;;6.90;99.90;;;;;;5041120;28;20586;-72
2021/03/04 00:21:45;;;;;;;137.32;60.40;;;7.00;99.90;;;;;;5059332;28;20969;-70
2021/03/04 00:24:11;;;;;;;127.05;59.25;;;6.90;99.90;;;;;;5059512;28;20424;-70
2021/03/04 00:26:36;;;;;;;136.05;61.33;;;6.80;99.90;;;;;;5059652;28;20029;-70
2021/03/04 00:29:03;;;;;;;151.52;64.10;;;6.80;99.90;;;;;;5059282;28;20532;-70
2021/03/04 00:31:28;;;;;;;145.15;66.93;;;6.70;99.90;;;;;;5058804;28;20056;-70
2021/03/04 00:33:54;;;;;;;142.05;66.30;;;6.60;99.90;;;;;;5041703;28;20465;-70
2021/03/04 00:36:20;;;;;;;144.10;67.28;;;6.50;99.90;;;;;;5056978;28;20041;-70
2021/03/04 00:38:45;;;;;;;149.75;69.40;;;6.50;99.90;;;;;;5059589;28;20124;-70
2021/03/04 00:41:11;;;;;;;161.55;71.97;;;6.50;99.90;;;;;;5057485;28;20441;-70
2021/03/04 00:43:37;;;;;;;161.13;72.53;;;6.50;99.90;;;;;;5057553;28;20449;-70
2021/03/04 00:46:03;;;;;;;167.27;72.18;;;6.60;99.90;;;;;;5058508;28;20106;-70
2021/03/04 00:48:29;;;;;;;163.23;72.32;;;6.60;99.90;;;;;;5062189;28;20161;-70
2021/03/04 00:50:54;;;;;;;158.35;72.65;;;6.60;99.90;;;;;;5041718;28;20094;-70
2021/03/04 00:53:20;;;;;;;165.73;74.47;;;6.50;99.90;;;;;;5059942;28;20582;-70
2021/03/04 00:55:46;;;;;;;157.35;73.03;;;6.30;99.90;;;;;;5062634;28;20021;-70
2021/03/04 00:58:12;;;;;;;161.00;74.35;;;6.20;99.90;;;;;;5063141;28;20066;-70
2021/03/04 01:00:38;;;;;;;156.77;73.30;;;6.10;99.90;;;;;;5063253;28;20036;-70
2021/03/04 01:03:04;;;;;;;164.93;73.85;;;6.10;99.90;;;;;;5063053;28;20089;-70
2021/03/04 01:05:30;;;;;;;158.80;74.82;;;6.00;99.90;;;;;;5044930;28;20028;-70
2021/03/04 01:07:56;;;;;;;163.80;72.00;;;6.00;99.90;;;;;;5062605;28;20032;-70
2021/03/04 01:10:31;;;;;;;170.95;75.80;;;5.90;99.90;;;;;;5045096;28;20102;-70
2021/03/04 01:12:57;;;;;;;169.30;77.82;;;5.90;99.90;;;;;;5044587;28;20032;-70
2021/03/04 01:15:22;;;;;;;163.32;74.07;;;5.90;99.90;;;;;;5061898;28;20050;-70
2021/03/04 01:17:48;;;;;;;161.60;75.68;;;5.90;99.90;;;;;;5063635;28;20024;-70
2021/03/04 01:20:16;;;;;;;174.52;78.18;;;5.90;99.90;;;;;;5062063;28;20036;-70
2021/03/04 01:22:43;;;;;;;167.73;74.60;;;5.90;99.90;;;;;;5061201;28;20029;-70
2021/03/04 01:25:09;;;;;;;173.20;78.85;;;5.90;99.90;;;;;;5061181;28;20039;-69
2021/03/04 01:27:35;;;;;;;163.80;75.05;;;5.80;99.90;;;;;;5062640;28;20032;-69
2021/03/04 01:30:03;;;;;;;171.68;75.60;;;5.90;99.90;;;;;;5062738;28;20068;-69
2021/03/04 01:32:29;;;;;;;172.05;79.78;;;6.00;99.90;;;;;;5044290;28;20083;-69
2021/03/04 01:34:54;;;;;;;177.23;78.82;;;5.90;99.90;;;;;;5062146;28;20068;-70
2021/03/04 01:37:20;;;;;;;173.35;76.15;;;6.00;99.90;;;;;;5044399;28;20066;-70
2021/03/04 01:39:45;;;;;;;169.18;76.28;;;6.00;99.90;;;;;;5062950;28;20137;-70
2021/03/04 01:42:11;;;;;;;173.00;78.57;;;5.80;99.90;;;;;;5061711;28;20044;-70
2021/03/04 01:44:37;;;;;;;183.32;79.38;;;5.80;99.90;;;;;;5062666;28;20025;-70
2021/03/04 01:47:04;;;;;;;184.23;79.43;;;5.80;99.90;;;;;;5060617;28;20033;-69
2021/03/04 01:49:30;;;;;;;183.77;78.50;;;5.70;99.90;;;;;;5062139;28;20024;-70
2021/03/04 01:51:56;;;;;;;185.18;81.00;;;5.60;99.90;;;;;;5043880;28;20568;-69
2021/03/04 01:54:22;;;;;;;187.43;83.05;;;5.50;99.90;;;;;;5062077;28;20205;-69
2021/03/04 01:56:47;;;;;;;183.77;78.40;;;5.60;99.90;;;;;;5060991;28;20075;-71
2021/03/04 01:59:14;;;;;;;178.68;80.10;;;5.60;99.90;;;;;;5058837;28;20040;-70
2021/03/04 02:01:40;;;;;;;178.38;77.32;;;5.70;99.90;;;;;;5060386;28;20052;-69
2021/03/04 02:04:06;;;;;;;180.45;81.32;;;5.70;99.90;;;;;;5043795;28;20746;-70
2021/03/04 02:06:43;;;;;;;188.82;83.00;;;5.80;99.90;;;;;;5061154;28;20028;-70
2021/03/04 02:09:11;;;;;;;196.00;82.47;;;5.80;99.90;;;;;;5062464;28;20036;-69
2021/03/04 02:11:49;;;;;;;182.93;80.65;;;5.80;99.90;;;;;;5041149;28;20489;-70
2021/03/04 02:14:40;;;;;;;187.60;80.22;;;5.70;99.90;;;;;;5043491;28;20036;-70
2021/03/04 02:17:10;;;;;;;181.80;79.40;;;5.70;99.90;;;;;;5048779;28;20047;-70
2021/03/04 02:19:53;;;;;;;189.13;83.15;;;5.60;99.90;;;;;;5061903;28;20063;-69
2021/03/04 02:22:23;;;;;;;190.63;82.15;;;5.70;99.90;;;;;;5060316;28;20039;-70
2021/03/04 02:25:10;;;;;;;187.85;79.10;;;5.70;99.90;;;;;;5043684;28;20037;-70
2021/03/04 02:27:37;;;;;;;190.82;82.60;;;5.70;99.90;;;;;;5061155;28;20033;-69
2021/03/04 02:30:16;;;;;;;199.52;83.75;;;5.60;99.90;;;;;;5061069;28;20118;-69
2021/03/04 02:32:49;;;;;;;190.55;81.65;;;5.60;99.90;;;;;;5042734;28;20042;-70
2021/03/04 02:35:33;;;;;;;197.23;82.47;;;5.60;99.90;;;;;;5060672;28;20036;-69
2021/03/04 02:38:02;;;;;;;199.73;86.95;;;5.50;99.90;;;;;;5061142;28;20488;-70
2021/03/04 02:40:32;;;;;;;203.27;86.70;;;5.50;99.90;;;;;;5043242;28;20112;-70
2021/03/04 02:42:59;;;;;;;201.75;87.10;;;5.40;99.90;;;;;;5060521;28;20111;-70
2021/03/04 02:45:27;;;;;;;186.93;82.30;;;5.40;99.90;;;;;;5060741;28;20038;-69
2021/03/04 02:47:53;;;;;;;188.40;83.03;;;5.30;99.90;;;;;;5061639;28;20033;-70
2021/03/04 02:50:21;;;;;;;209.07;87.95;;;5.20;99.90;;;;;;5060791;28;20381;-70
2021/03/04 02:52:49;;;;;;;216.18;88.68;;;5.30;99.90;;;;;;5043109;28;20043;-70
2021/03/04 02:55:15;;;;;;;208.73;88.47;;;5.50;99.90;;;;;;5042280;28;20036;-70
2021/03/04 02:57:45;;;;;;;192.82;86.20;;;5.70;99.90;;;;;;5060891;28;20124;-70
2021/03/04 03:00:15;;;;;;;193.77;86.10;;;5.80;99.90;;;;;;5060329;28;20049;-70
2021/03/04 03:02:43;;;;;;;185.02;84.63;;;5.90;99.90;;;;;;5060227;28;20035;-70
2021/03/04 03:05:11;;;;;;;195.18;83.05;;;5.90;99.90;;;;;;5059124;28;20037;-70
2021/03/04 03:07:39;;;;;;;187.57;83.90;;;5.90;99.90;;;;;;5055120;28;20016;-70
2021/03/04 03:10:07;;;;;;;182.32;82.90;;;5.90;99.90;;;;;;5042663;28;20028;-70
2021/03/04 03:12:36;;;;;;;185.35;83.70;;;6.00;99.90;;;;;;5024989;28;20037;-70
2021/03/04 03:15:08;;;;;;;183.77;82.65;;;5.90;99.90;;;;;;5060325;28;20044;-70
2021/03/04 03:17:35;;;;;;;185.65;82.00;;;5.90;99.90;;;;;;5060500;28;20032;-70
2021/03/04 03:20:03;;;;;;;183.38;79.70;;;6.00;99.90;;;;;;5046513;28;20048;-70
2021/03/04 03:22:29;;;;;;;183.32;81.43;;;6.00;99.90;;;;;;5063186;28;20035;-70
2021/03/04 03:24:55;;;;;;;174.43;79.47;;;5.90;99.90;;;;;;5060615;28;20032;-70
2021/03/04 03:27:21;;;;;;;182.57;81.50;;;5.90;99.90;;;;;;5058556;28;20431;-70
2021/03/04 03:29:46;;;;;;;190.95;85.43;;;5.90;99.90;;;;;;5042975;28;20036;-70
2021/03/04 03:32:13;;;;;;;191.90;83.28;;;5.90;99.90;;;;;;5059406;28;20041;-70
2021/03/04 03:34:40;;;;;;;180.82;82.63;;;5.90;99.90;;;;;;5041991;28;20485;-70
2021/03/04 03:37:07;;;;;;;183.75;80.85;;;5.90;99.90;;;;;;5060299;28;20036;-70
2021/03/04 03:39:34;;;;;;;184.25;81.72;;;5.90;99.90;;;;;;5059792;28;20048;-70
2021/03/04 03:42:02;;;;;;;185.85;82.85;;;5.80;99.90;;;;;;5060525;28;20138;-70
2021/03/04 03:44:29;;;;;;;174.02;79.47;;;5.80;99.90;;;;;;5060317;28;20028;-70
2021/03/04 03:46:55;;;;;;;172.43;80.90;;;5.80;99.90;;;;;;5042327;28;20052;-70
2021/03/04 03:49:21;;;;;;;184.60;82.78;;;5.80;99.90;;;;;;5059713;28;20040;-70
2021/03/04 03:51:47;;;;;;;172.23;77.82;;;5.90;99.90;;;;;;5058186;28;20048;-70
2021/03/04 03:54:14;;;;;;;162.27;72.93;;;5.80;99.90;;;;;;5041822;28;20036;-69
2021/03/04 03:56:40;;;;;;;160.38;66.18;;;5.70;99.90;;;;;;5041104;28;20033;-70
2021/03/04 03:59:07;;;;;;;152.48;63.65;;;5.50;99.90;;;;;;5058758;28;20040;-70
2021/03/04 04:01:34;;;;;;;150.43;62.80;;;5.40;99.90;;;;;;5035989;28;20025;-70
2021/03/04 04:04:01;;;;;;;145.32;61.70;;;5.40;99.90;;;;;;5041420;28;20552;-70
2021/03/04 04:06:31;;;;;;;149.35;60.63;;;5.30;99.90;;;;;;5059305;28;20484;-70
2021/03/04 04:08:58;;;;;;;148.32;59.42;;;5.30;99.90;;;;;;5041606;28;20071;-70
2021/03/04 04:11:29;;;;;;;144.13;60.05;;;5.20;99.90;;;;;;5059247;28;20079;-70
2021/03/04 04:13:56;;;;;;;133.63;57.47;;;5.20;99.90;;;;;;5059221;28;20074;-70
2021/03/04 04:16:24;;;;;;;130.75;55.00;;;5.10;99.90;;;;;;5059333;28;20039;-69
2021/03/04 04:18:51;;;;;;;138.82;56.90;;;4.90;99.90;;;;;;5059068;28;20063;-69
2021/03/04 04:21:18;;;;;;;141.45;55.58;;;5.00;99.90;;;;;;5059481;28;20040;-70
2021/03/04 04:23:44;;;;;;;132.15;55.53;;;4.90;99.90;;;;;;5057511;28;20066;-69
2021/03/04 04:26:11;;;;;;;142.35;55.58;;;4.90;99.90;;;;;;5058857;28;20050;-70
2021/03/04 04:28:37;;;;;;;127.82;55.15;;;4.90;99.90;;;;;;5059789;28;20040;-69
2021/03/04 04:31:03;;;;;;;129.07;53.67;;;4.90;99.90;;;;;;5059453;28;20048;-70
2021/03/04 04:33:29;;;;;;;128.43;52.10;;;4.80;99.90;;;;;;5059086;28;20097;-69
2021/03/04 04:35:55;;;;;;;129.25;52.88;;;4.80;99.90;;;;;;5059191;28;20044;-70
2021/03/04 04:38:20;;;;;;;119.78;50.55;;;4.70;99.90;;;;;;5059656;28;20107;-70
2021/03/04 04:40:46;;;;;;;120.40;50.42;;;4.70;99.90;;;;;;5058673;28;20541;-69
2021/03/04 04:43:12;;;;;;;124.57;50.88;;;4.70;99.90;;;;;;5041172;28;20040;-70
2021/03/04 04:45:38;;;;;;;124.47;50.63;;;4.60;99.90;;;;;;5058659;28;20518;-70
2021/03/04 04:48:04;;;;;;;118.75;48.08;;;4.60;99.90;;;;;;5058968;28;20039;-70
2021/03/04 04:50:30;;;;;;;124.65;48.15;;;4.50;99.90;;;;;;5024466;28;20464;-70
2021/03/04 04:52:56;;;;;;;119.22;48.80;;;4.60;99.90;;;;;;5053202;28;20120;-70
2021/03/04 04:55:22;;;;;;;112.60;46.17;;;4.60;99.90;;;;;;5055119;28;20075;-70
2021/03/04 04:57:48;;;;;;;111.32;44.40;;;4.60;99.90;;;;;;5053410;28;20513;-70
2021/03/04 05:00:14;;;;;;;115.40;45.03;;;4.50;99.90;;;;;;5053841;28;20040;-70
2021/03/04 05:02:40;;;;;;;108.25;45.65;;;4.60;99.90;;;;;;5035188;28;20043;-70
2021/03/04 05:05:07;;;;;;;109.13;44.42;;;4.50;99.90;;;;;;5017913;28;20033;-70
2021/03/04 05:07:34;;;;;;;105.68;42.80;;;4.60;99.90;;;;;;5021033;28;20024;-70
2021/03/04 05:09:59;;;;;;;111.72;44.17;;;4.50;99.90;;;;;;5056674;28;20042;-70
2021/03/04 05:12:25;;;;;;;112.28;44.33;;;4.50;99.90;;;;;;5052016;28;20028;-70
2021/03/04 05:14:54;;;;;;;107.45;44.15;;;4.60;99.90;;;;;;5057898;28;20036;-68
2021/03/04 05:17:21;;;;;;;111.35;44.90;;;4.70;99.90;;;;;;5058506;28;20139;-68
2021/03/04 05:19:47;;;;;;;104.63;43.22;;;4.50;99.90;;;;;;5055303;28;20529;-68
2021/03/04 05:22:13;;;;;;;108.63;44.03;;;4.50;99.90;;;;;;5058325;28;20131;-68
2021/03/04 05:24:39;;;;;;;114.15;46.35;;;4.40;99.90;;;;;;5054992;28;20134;-68
2021/03/04 05:27:05;;;;;;;119.75;45.92;;;4.40;99.90;;;;;;5040087;28;20086;-69
2021/03/04 05:29:30;;;;;;;111.30;44.55;;;4.50;99.90;;;;;;5040044;28;20046;-69
2021/03/04 05:31:56;;;;;;;111.18;44.20;;;4.50;99.90;;;;;;5057768;28;20840;-69
2021/03/04 05:34:22;;;;;;;112.88;43.80;;;4.50;99.90;;;;;;5040093;28;20141;-69
2021/03/04 05:36:48;;;;;;;111.65;44.72;;;4.50;99.90;;;;;;5057814;28;20063;-69
2021/03/04 05:39:14;;;;;;;108.10;42.92;;;4.60;99.90;;;;;;5052409;28;20105;-69
2021/03/04 05:41:41;;;;;;;110.75;42.40;;;4.60;99.90;;;;;;5039236;28;20028;-69
2021/03/04 05:44:07;;;;;;;108.47;42.00;;;4.60;99.90;;;;;;5056618;28;20111;-69
2021/03/04 05:46:36;;;;;;;104.47;41.65;;;4.60;99.90;;;;;;5051590;28;20024;-69
2021/03/04 05:49:03;;;;;;;113.95;44.20;;;4.60;99.90;;;;;;5058198;28;20143;-69
2021/03/04 05:51:37;;;;;;;113.32;42.05;;;4.50;99.90;;;;;;5039562;28;20037;-69
2021/03/04 05:54:05;;;;;;;108.90;41.75;;;4.60;99.90;;;;;;5054874;28;20036;-69
2021/03/04 05:56:35;;;;;;;108.38;42.85;;;4.60;99.90;;;;;;5036311;28;20040;-72
2021/03/04 05:59:01;;;;;;;103.10;40.63;;;4.50;99.90;;;;;;5051268;28;20040;-72
2021/03/04 06:01:28;;;;;;;110.32;41.65;;;4.40;99.90;;;;;;5053514;28;20037;-72
2021/03/04 06:03:54;;;;;;;105.63;41.70;;;4.40;99.90;;;;;;5033819;28;20035;-72
2021/03/04 06:06:20;;;;;;;101.75;39.60;;;4.40;99.90;;;;;;5055679;28;20424;-72
2021/03/04 06:08:45;;;;;;;92.43;38.42;;;4.40;99.90;;;;;;5009992;28;20033;-72
2021/03/04 06:11:11;;;;;;;100.35;37.90;;;4.40;99.90;;;;;;5025164;28;20495;-72
2021/03/04 06:13:37;;;;;;;102.72;39.10;;;4.40;99.90;;;;;;5035482;28;20029;-72
2021/03/04 06:16:03;;;;;;;93.47;38.20;;;4.40;99.90;;;;;;5034401;28;20047;-72
2021/03/04 06:18:41;;;;;;;94.68;37.97;;;4.40;99.90;;;;;;5038599;28;20147;-72
2021/03/04 06:21:20;;;;;;;100.43;38.60;;;4.40;99.90;;;;;;5034038;28;20042;-73
2021/03/04 06:23:46;;;;;;;92.03;38.15;;;4.50;99.90;;;;;;5036308;28;20662;-72
2021/03/04 06:26:36;;;;;;;93.10;37.03;;;4.40;99.90;;;;;;5027639;28;20114;-72
2021/03/04 06:29:16;;;;;;;97.47;37.25;;;4.40;99.90;;;;;;5055465;28;20037;-72
2021/03/04 06:31:43;;;;;;;92.63;36.15;;;4.40;99.90;;;;;;5033872;28;20083;-72
2021/03/04 06:34:20;;;;;;;95.22;36.60;;;4.40;99.90;;;;;;5021323;28;20097;-72
2021/03/04 06:37:05;;;;;;;95.40;38.08;;;4.40;99.90;;;;;;5048431;28;20875;-74
2021/03/04 06:39:45;;;;;;;101.82;37.97;;;4.50;99.90;;;;;;5032630;28;20032;-70
2021/03/04 06:42:12;;;;;;;90.45;37.13;;;4.50;99.90;;;;;;5050446;28;20035;-72
2021/03/04 06:44:47;;;;;;;90.40;37.70;;;4.60;99.90;;;;;;5033924;28;20094;-72
2021/03/04 06:47:24;;;;;;;90.03;37.28;;;4.60;99.90;;;;;;5050921;28;20043;-72
2021/03/04 06:49:52;;;;;;;88.55;36.33;;;4.60;99.90;;;;;;5051195;28;20500;-72
2021/03/04 06:52:28;;;;;;;87.00;36.45;;;4.60;99.90;;;;;;5021091;28;20051;-72
2021/03/04 06:55:05;;;;;;;90.20;36.85;;;4.60;99.90;;;;;;5050667;28;20043;-72
2021/03/04 06:57:31;;;;;;;95.07;38.38;;;4.60;99.90;;;;;;5051016;28;20040;-71
2021/03/04 06:59:56;;;;;;;91.95;37.97;;;4.80;99.90;;;;;;5038698;28;20086;-72
2021/03/04 07:02:29;;;;;;;90.50;37.88;;;4.80;99.90;;;;;;5035832;28;20045;-71
2021/03/04 07:04:59;;;;;;;83.15;36.42;;;4.80;99.90;;;;;;5033200;28;20098;-72
2021/03/04 07:07:27;;;;;;;88.03;35.67;;;4.80;99.90;;;;;;5038699;28;20837;-72
2021/03/04 07:09:54;;;;;;;87.82;36.78;;;4.80;99.90;;;;;;5037841;28;20170;-71
2021/03/04 07:12:21;;;;;;;85.93;33.92;;;4.90;99.90;;;;;;5033164;28;20033;-72
2021/03/04 07:14:51;;;;;;;80.85;33.95;;;4.80;99.90;;;;;;5035490;28;20032;-72
2021/03/04 07:17:22;;;;;;;74.45;31.45;;;4.90;99.90;;;;;;5053757;28;20049;-72
2021/03/04 07:19:56;;;;;;;85.68;34.60;;;4.90;99.90;;;;;;5031985;28;20043;-72
2021/03/04 07:22:24;;;;;;;76.00;33.03;;;4.90;99.90;;;;;;5051882;28;20047;-72
2021/03/04 07:24:50;;;;;;;80.20;33.65;;;4.80;99.90;;;;;;5017760;28;20716;-72
2021/03/04 07:27:17;;;;;;;79.45;30.17;;;4.80;99.90;;;;;;5017902;28;20603;-72
2021/03/04 07:29:44;;;;;;;69.22;30.50;;;4.90;99.90;;;;;;5049328;28;20035;-72
2021/03/04 07:32:11;;;;;;;72.60;30.42;;;4.90;99.90;;;;;;5034302;28;20059;-72
2021/03/04 07:34:39;;;;;;;67.43;28.58;;;4.90;99.90;;;;;;5028588;28;20037;-72
2021/03/04 07:37:06;;;;;;;61.22;27.23;;;4.90;99.90;;;;;;5046051;28;20050;-73
2021/03/04 07:39:37;;;;;;;66.28;28.05;;;4.90;99.90;;;;;;5028533;28;20048;-73
2021/03/04 07:42:03;;;;;;;73.82;31.10;;;4.80;99.90;;;;;;5048755;28;20491;-72
2021/03/04 07:44:33;;;;;;;72.18;27.90;;;4.70;99.90;;;;;;5015628;28;20032;-71
2021/03/04 07:47:07;;;;;;;65.55;27.45;;;4.60;99.90;;;;;;5049286;28;20056;-71
2021/03/04 07:49:45;;;;;;;68.13;27.80;;;4.60;99.90;;;;;;5026639;28;20052;-71
2021/03/04 07:52:18;;;;;;;68.07;26.73;;;4.60;99.90;;;;;;5054653;28;20048;-71
2021/03/04 07:54:47;;;;;;;61.45;26.52;;;4.70;99.90;;;;;;5055685;28;20043;-71
2021/03/04 07:57:18;;;;;;;64.82;27.98;;;4.80;99.90;;;;;;5028184;28;20127;-71
2021/03/04 07:59:55;;;;;;;58.03;25.75;;;4.80;99.90;;;;;;5032956;28;20040;-73
2021/03/04 08:02:28;;;;;;;64.70;25.30;;;4.80;99.90;;;;;;5052829;28;20039;-72
2021/03/04 08:05:17;;;;;;;69.90;29.40;;;4.70;99.90;;;;;;5036431;28;20032;-72
2021/03/04 08:07:43;;;;;;;63.13;26.75;;;4.80;99.90;;;;;;5051390;28;20481;-72
2021/03/04 08:10:10;;;;;;;62.42;26.85;;;4.70;99.90;;;;;;5029330;28;20080;-72
2021/03/04 08:12:47;;;;;;;65.18;26.58;;;4.70;99.90;;;;;;5044154;28;20063;-72
2021/03/04 08:15:13;;;;;;;58.53;24.92;;;4.70;99.90;;;;;;5030583;28;20706;-72
2021/03/04 08:17:39;;;;;;;63.30;25.35;;;4.70;99.90;;;;;;5030310;28;20813;-72
2021/03/04 08:20:12;;;;;;;60.08;25.90;;;4.70;99.90;;;;;;5031756;28;20040;-72
2021/03/04 08:22:44;;;;;;;58.97;24.48;;;4.70;99.90;;;;;;5045862;28;20025;-72
2021/03/04 08:25:20;;;;;;;60.70;25.17;;;4.70;99.90;;;;;;5048615;28;20025;-72
2021/03/04 08:27:47;;;;;;;58.65;23.73;;;4.70;99.90;;;;;;5035213;28;20025;-72
2021/03/04 08:30:13;;;;;;;55.55;23.65;;;4.70;99.90;;;;;;5035834;28;20110;-72
2021/03/04 08:32:41;;;;;;;61.50;24.50;;;4.70;99.90;;;;;;5032732;28;20036;-72
2021/03/04 08:35:21;;;;;;;57.47;23.63;;;4.60;99.90;;;;;;5054632;28;20041;-72
2021/03/04 08:37:46;;;;;;;58.08;23.92;;;4.60;99.90;;;;;;5022244;28;20080;-72
2021/03/04 08:40:13;;;;;;;58.40;25.13;;;4.50;99.90;;;;;;5036433;28;20151;-73
2021/03/04 08:42:38;;;;;;;58.28;23.33;;;4.60;99.90;;;;;;5039264;28;20123;-72
2021/03/04 08:45:06;;;;;;;55.40;22.52;;;4.70;99.90;;;;;;5033383;28;20503;-72
2021/03/04 08:47:32;;;;;;;53.65;22.42;;;4.70;99.90;;;;;;5032949;28;20128;-72
2021/03/04 08:49:59;;;;;;;54.45;23.85;;;4.70;99.90;;;;;;5029586;28;20044;-72
2021/03/04 08:52:28;;;;;;;58.22;23.85;;;4.80;99.90;;;;;;5037099;28;20043;-73
2021/03/04 08:54:56;;;;;;;54.35;21.73;;;4.80;99.90;;;;;;5040769;28;20036;-72
2021/03/04 08:57:26;;;;;;;56.03;22.38;;;4.80;99.90;;;;;;5057293;28;20041;-72
2021/03/04 09:00:22;;;;;;;55.58;22.58;;;4.80;99.90;;;;;;5040064;28;20125;-72
2021/03/04 09:02:48;;;;;;;58.03;23.25;;;4.90;99.90;;;;;;5042056;28;20029;-72
2021/03/04 09:05:22;;;;;;;57.30;23.40;;;4.90;99.90;;;;;;5052626;28;20815;-73
2021/03/04 09:07:48;;;;;;;56.20;23.15;;;4.90;99.90;;;;;;5034110;28;20128;-72
2021/03/04 09:10:15;;;;;;;58.85;24.50;;;4.90;99.90;;;;;;5052963;28;20070;-77
2021/03/04 09:12:44;;;;;;;57.53;24.17;;;5.00;99.90;;;;;;5050352;28;20033;-71
2021/03/04 09:15:12;;;;;;;61.90;24.55;;;5.00;99.90;;;;;;5034736;28;20039;-71
2021/03/04 09:17:39;;;;;;;59.05;24.77;;;5.00;99.90;;;;;;5038421;28;20036;-71
2021/03/04 09:20:06;;;;;;;55.40;22.92;;;5.10;99.90;;;;;;5033406;28;20453;-71
2021/03/04 09:22:34;;;;;;;55.08;23.77;;;5.10;99.90;;;;;;5032383;28;20124;-72
2021/03/04 09:25:00;;;;;;;54.30;22.60;;;5.00;99.90;;;;;;5027894;28;20037;-71
2021/03/04 09:27:26;;;;;;;62.00;25.05;;;5.00;99.90;;;;;;5047048;28;20040;-71
2021/03/04 09:29:51;;;;;;;62.40;24.60;;;5.00;99.90;;;;;;5053212;28;20119;-70
2021/03/04 09:32:17;;;;;;;60.00;24.30;;;5.00;99.90;;;;;;5035996;28;20028;-71
2021/03/04 09:34:45;;;;;;;63.38;24.05;;;5.00;99.90;;;;;;5038845;28;20451;-71
2021/03/04 09:37:13;;;;;;;66.72;24.08;;;5.10;99.90;;;;;;5053504;28;20101;-72
2021/03/04 09:39:47;;;;;;;56.15;24.52;;;5.20;99.90;;;;;;5054243;28;20040;-71
2021/03/04 09:42:16;;;;;;;58.80;23.80;;;5.20;99.90;;;;;;5032941;28;20132;-71
2021/03/04 09:44:55;;;;;;;62.00;23.63;;;5.10;99.90;;;;;;5034268;28;20139;-72
2021/03/04 09:47:26;;;;;;;52.17;22.35;;;5.10;99.90;;;;;;5048609;28;20039;-71
2021/03/04 09:49:53;;;;;;;58.72;24.38;;;5.20;99.90;;;;;;5051882;28;20044;-71
2021/03/04 09:52:27;;;;;;;60.47;23.98;;;5.20;99.90;;;;;;5056291;28;20782;-72
2021/03/04 09:55:15;;;;;;;56.78;24.35;;;5.30;99.90;;;;;;5038898;28;20785;-72
2021/03/04 09:57:43;;;;;;;58.97;24.20;;;5.30;99.90;;;;;;5051835;28;20547;-72
2021/03/04 10:00:15;;;;;;;58.67;24.15;;;5.30;99.90;;;;;;5035512;28;20582;-72
2021/03/04 10:02:42;;;;;;;54.97;23.38;;;5.20;99.90;;;;;;5043485;28;20069;-72
2021/03/04 10:05:22;;;;;;;76.13;30.67;;;5.20;99.90;;;;;;5054970;28;20032;-71
2021/03/04 10:07:50;;;;;;;55.13;21.27;;;5.10;99.90;;;;;;5044899;28;20579;-71
2021/03/04 10:10:20;;;;;;;53.67;20.27;;;5.10;99.90;;;;;;5029626;28;20128;-71
2021/03/04 10:12:55;;;;;;;47.70;19.77;;;5.10;99.90;;;;;;5053187;28;20032;-72
2021/03/04 10:15:28;;;;;;;49.90;19.77;;;5.10;99.90;;;;;;5022819;28;20840;-72
2021/03/04 10:17:57;;;;;;;50.25;20.27;;;5.10;99.90;;;;;;5032682;28;20059;-71
2021/03/04 10:20:23;;;;;;;48.30;20.27;;;5.10;99.90;;;;;;5052816;28;20700;-72
2021/03/04 10:22:50;;;;;;;46.95;20.15;;;5.10;99.90;;;;;;5013355;28;20063;-70
2021/03/04 10:25:16;;;;;;;47.20;18.38;;;5.10;99.90;;;;;;5036424;28;20036;-71
2021/03/04 10:27:42;;;;;;;46.35;18.98;;;5.20;99.90;;;;;;5008250;28;20037;-71
2021/03/04 10:30:10;;;;;;;52.25;20.50;;;5.20;99.90;;;;;;5052650;28;20067;-71
2021/03/04 10:32:36;;;;;;;48.60;20.38;;;5.30;99.90;;;;;;5055791;28;20040;-71
2021/03/04 10:35:06;;;;;;;44.13;18.15;;;5.30;99.90;;;;;;5034608;28;20032;-71
2021/03/04 10:37:32;;;;;;;49.42;19.73;;;5.40;99.90;;;;;;5049997;28;20051;-71
2021/03/04 10:39:58;;;;;;;44.15;19.02;;;5.40;99.90;;;;;;5026546;28;20040;-71
2021/03/04 10:42:23;;;;;;;46.40;19.30;;;5.50;99.90;;;;;;5035441;28;20105;-71
2021/03/04 10:44:53;;;;;;;46.58;18.30;;;5.50;99.90;;;;;;5028485;28;20398;-71
2021/03/04 10:47:18;;;;;;;52.13;18.50;;;5.60;99.90;;;;;;5048084;28;20025;-72
2021/03/04 10:49:44;;;;;;;40.95;18.20;;;5.60;99.90;;;;;;5036314;28;20113;-72
2021/03/04 10:52:09;;;;;;;45.35;19.50;;;5.60;99.90;;;;;;5036246;28;20040;-74
2021/03/04 10:54:35;;;;;;;47.33;20.15;;;5.70;99.90;;;;;;5037567;28;20032;-72
2021/03/04 10:57:01;;;;;;;50.13;20.90;;;5.70;99.90;;;;;;5037316;28;20837;-72
2021/03/04 10:59:26;;;;;;;48.03;19.95;;;5.70;99.90;;;;;;5054745;28;20878;-72
2021/03/04 11:01:52;;;;;;;51.97;21.25;;;5.70;99.90;;;;;;5029448;28;20746;-73
2021/03/04 11:04:18;;;;;;;52.80;19.80;;;5.70;99.90;;;;;;5034922;28;20024;-73
2021/03/04 11:06:43;;;;;;;50.40;20.92;;;5.70;99.90;;;;;;5045322;28;20040;-72
2021/03/04 11:09:09;;;;;;;48.25;20.13;;;5.70;99.90;;;;;;5036775;28;20124;-73
2021/03/04 11:11:35;;;;;;;53.72;22.50;;;5.70;99.90;;;;;;5045612;28;20110;-72
2021/03/04 11:14:00;;;;;;;46.13;19.10;;;5.80;99.90;;;;;;5032218;28;20615;-73
2021/03/04 11:16:26;;;;;;;44.28;19.30;;;5.50;99.90;;;;;;5055000;28;20039;-72
2021/03/04 11:18:52;;;;;;;43.53;17.90;;;5.50;99.90;;;;;;5049167;28;20145;-72
2021/03/04 11:21:18;;;;;;;43.22;18.33;;;5.50;99.90;;;;;;5031523;28;20074;-70
2021/03/04 11:23:43;;;;;;;44.35;20.00;;;5.60;99.90;;;;;;5037178;28;20131;-72
2021/03/04 11:26:09;;;;;;;45.72;18.70;;;5.70;99.90;;;;;;5044143;28;20523;-70
2021/03/04 11:28:35;;;;;;;42.47;19.00;;;5.80;99.90;;;;;;5045211;28;20091;-72
2021/03/04 11:31:00;;;;;;;42.92;17.73;;;5.80;99.90;;;;;;5045229;28;20094;-72
2021/03/04 11:33:26;;;;;;;44.10;19.23;;;5.50;99.90;;;;;;5053660;28;20032;-72
2021/03/04 11:35:52;;;;;;;42.72;18.95;;;5.40;99.90;;;;;;5051557;28;20037;-72
2021/03/04 11:38:18;;;;;;;46.20;18.48;;;5.30;99.90;;;;;;5055119;28;20427;-72
2021/03/04 11:40:44;;;;;;;82.55;39.72;;;5.30;99.90;;;;;;5055433;28;20070;-72
2021/03/04 11:43:10;;;;;;;53.28;18.70;;;5.40;99.90;;;;;;5034681;28;20508;-73
2021/03/04 11:45:36;;;;;;;40.35;17.40;;;5.30;99.90;;;;;;5030141;28;20558;-72
2021/03/04 11:48:02;;;;;;;43.47;18.05;;;5.30;99.90;;;;;;5050075;28;20517;-73
2021/03/04 11:50:28;;;;;;;42.25;17.15;;;5.20;99.90;;;;;;5037671;28;20523;-72
2021/03/04 11:52:53;;;;;;;41.22;17.23;;;5.20;99.90;;;;;;5031281;28;20032;-72
2021/03/04 11:55:19;;;;;;;46.17;21.25;;;5.20;99.90;;;;;;5037110;28;20033;-72
2021/03/04 11:57:45;;;;;;;39.13;16.33;;;5.10;99.90;;;;;;5049454;28;20428;-72
2021/03/04 12:00:11;;;;;;;41.70;17.58;;;5.10;99.90;;;;;;5037073;28;20064;-72
2021/03/04 12:02:37;;;;;;;42.78;16.67;;;5.20;99.90;;;;;;5058711;28;20026;-72
2021/03/04 12:05:03;;;;;;;41.08;17.77;;;5.20;99.90;;;;;;5057791;28;20581;-72
2021/03/04 12:07:28;;;;;;;37.40;16.63;;;5.00;99.90;;;;;;5038126;28;20058;-72
2021/03/04 12:09:55;;;;;;;38.88;17.38;;;5.10;99.90;;;;;;5033837;28;20060;-72
2021/03/04 12:12:22;;;;;;;39.03;16.83;;;5.00;99.90;;;;;;5047646;28;20036;-72
2021/03/04 12:14:48;;;;;;;39.78;16.88;;;4.90;99.90;;;;;;5052892;28;20090;-72
2021/03/04 12:17:14;;;;;;;33.63;16.58;;;5.00;99.90;;;;;;5038897;28;20116;-72
2021/03/04 12:19:39;;;;;;;37.38;16.42;;;5.10;99.90;;;;;;5045732;28;20033;-72
2021/03/04 12:22:05;;;;;;;40.22;16.75;;;5.00;99.90;;;;;;5051862;28;20036;-72
2021/03/04 12:24:32;;;;;;;38.28;16.63;;;4.90;99.90;;;;;;5054698;28;20071;-72
2021/03/04 12:26:57;;;;;;;41.08;17.83;;;4.90;99.90;;;;;;5039324;28;20457;-72
2021/03/04 12:29:23;;;;;;;38.38;16.77;;;4.80;99.90;;;;;;5039639;28;20847;-72
2021/03/04 12:31:49;;;;;;;36.85;16.27;;;5.00;99.90;;;;;;5057451;28;20870;-72
2021/03/04 12:34:15;;;;;;;41.03;17.17;;;5.00;99.90;;;;;;5051104;28;20033;-73
2021/03/04 12:36:42;;;;;;;38.30;16.38;;;5.00;99.90;;;;;;5010269;28;20048;-72